sensor_id;sensor_type;location;lat;lon;timestamp;P1;durP1;ratioP1;P2;durP2;ratioP2
34019;SDS011;20895;51.034;3.742;2023-06-24T00:01:13;5.35;;;3.60;;
34019;SDS011;20895;51.034;3.742;2023-06-24T00:03:39;7.00;;;3.42;;
34019;SDS011;20895;51.034;3.742;2023-06-24T00:06:04;5.28;;;3.58;;
34019;SDS011;20895;51.034;3.742;2023-06-24T00:08:29;4.35;;;3.53;;
34019;SDS011;20895;51.034;3.742;2023-06-24T00:10:59;5.60;;;3.70;;
34019;SDS011;20895;51.034;3.742;2023-06-24T00:13:25;4.28;;;3.33;;
34019;SDS011;20895;51.034;3.742;2023-06-24T00:15:50;5.05;;;3.45;;
34019;SDS011;20895;51.034;3.742;2023-06-24T00:18:15;5.20;;;3.63;;
34019;SDS011;20895;51.034;3.742;2023-06-24T00:20:40;6.75;;;3.63;;
34019;SDS011;20895;51.034;3.742;2023-06-24T00:23:08;5.68;;;4.00;;
34019;SDS011;20895;51.034;3.742;2023-06-24T00:25:33;5.13;;;3.28;;
34019;SDS011;20895;51.034;3.742;2023-06-24T00:27:59;5.03;;;3.63;;
34019;SDS011;20895;51.034;3.742;2023-06-24T00:30:25;4.18;;;2.95;;
34019;SDS011;20895;51.034;3.742;2023-06-24T00:32:50;4.65;;;3.38;;
34019;SDS011;20895;51.034;3.742;2023-06-24T00:35:17;4.78;;;3.67;;
34019;SDS011;20895;51.034;3.742;2023-06-24T00:37:42;5.68;;;3.53;;
34019;SDS011;20895;51.034;3.742;2023-06-24T00:40:10;8.27;;;4.20;;
34019;SDS011;20895;51.034;3.742;2023-06-24T00:42:36;6.40;;;4.40;;
34019;SDS011;20895;51.034;3.742;2023-06-24T00:45:01;6.03;;;3.88;;
34019;SDS011;20895;51.034;3.742;2023-06-24T00:47:29;6.05;;;3.72;;
34019;SDS011;20895;51.034;3.742;2023-06-24T00:49:55;5.80;;;3.55;;
34019;SDS011;20895;51.034;3.742;2023-06-24T00:52:21;5.05;;;3.72;;
34019;SDS011;20895;51.034;3.742;2023-06-24T00:54:47;5.78;;;3.70;;
34019;SDS011;20895;51.034;3.742;2023-06-24T00:57:12;6.70;;;4.03;;
34019;SDS011;20895;51.034;3.742;2023-06-24T00:59:38;6.15;;;3.85;;
34019;SDS011;20895;51.034;3.742;2023-06-24T01:02:04;3.97;;;3.22;;
34019;SDS011;20895;51.034;3.742;2023-06-24T01:04:32;5.43;;;4.00;;
34019;SDS011;20895;51.034;3.742;2023-06-24T01:06:58;4.70;;;3.55;;
34019;SDS011;20895;51.034;3.742;2023-06-24T01:09:24;6.38;;;4.05;;
34019;SDS011;20895;51.034;3.742;2023-06-24T01:11:49;5.68;;;4.18;;
34019;SDS011;20895;51.034;3.742;2023-06-24T01:14:15;5.80;;;3.75;;
34019;SDS011;20895;51.034;3.742;2023-06-24T01:32:22;5.68;;;3.90;;
34019;SDS011;20895;51.034;3.742;2023-06-24T01:35:05;5.10;;;3.65;;
34019;SDS011;20895;51.034;3.742;2023-06-24T01:37:37;5.72;;;3.70;;
34019;SDS011;20895;51.034;3.742;2023-06-24T01:42:42;4.72;;;3.85;;
34019;SDS011;20895;51.034;3.742;2023-06-24T01:45:09;5.00;;;3.63;;
34019;SDS011;20895;51.034;3.742;2023-06-24T01:47:36;5.00;;;3.78;;
34019;SDS011;20895;51.034;3.742;2023-06-24T01:50:02;6.00;;;4.07;;
34019;SDS011;20895;51.034;3.742;2023-06-24T01:52:28;6.63;;;4.05;;
34019;SDS011;20895;51.034;3.742;2023-06-24T01:54:54;4.90;;;3.33;;
34019;SDS011;20895;51.034;3.742;2023-06-24T01:57:20;5.70;;;3.90;;
34019;SDS011;20895;51.034;3.742;2023-06-24T01:59:46;5.57;;;3.80;;
34019;SDS011;20895;51.034;3.742;2023-06-24T02:02:12;7.88;;;4.32;;
34019;SDS011;20895;51.034;3.742;2023-06-24T02:04:38;7.88;;;4.40;;
34019;SDS011;20895;51.034;3.742;2023-06-24T02:07:03;6.75;;;4.70;;
34019;SDS011;20895;51.034;3.742;2023-06-24T02:09:29;6.18;;;4.50;;
34019;SDS011;20895;51.034;3.742;2023-06-24T02:11:56;5.22;;;4.50;;
34019;SDS011;20895;51.034;3.742;2023-06-24T02:14:22;5.68;;;4.25;;
34019;SDS011;20895;51.034;3.742;2023-06-24T02:16:47;6.95;;;5.15;;
34019;SDS011;20895;51.034;3.742;2023-06-24T02:19:14;7.25;;;4.55;;
34019;SDS011;20895;51.034;3.742;2023-06-24T02:21:43;6.15;;;4.53;;
34019;SDS011;20895;51.034;3.742;2023-06-24T02:24:08;5.57;;;4.28;;
34019;SDS011;20895;51.034;3.742;2023-06-24T02:26:34;7.65;;;4.53;;
34019;SDS011;20895;51.034;3.742;2023-06-24T02:29:02;5.38;;;4.40;;
34019;SDS011;20895;51.034;3.742;2023-06-24T02:31:28;5.63;;;4.38;;
34019;SDS011;20895;51.034;3.742;2023-06-24T02:33:53;7.68;;;5.05;;
34019;SDS011;20895;51.034;3.742;2023-06-24T02:36:19;6.25;;;4.78;;
34019;SDS011;20895;51.034;3.742;2023-06-24T02:38:44;6.60;;;4.63;;
34019;SDS011;20895;51.034;3.742;2023-06-24T02:41:09;7.20;;;5.13;;
34019;SDS011;20895;51.034;3.742;2023-06-24T02:43:34;8.18;;;4.75;;
34019;SDS011;20895;51.034;3.742;2023-06-24T02:46:01;6.75;;;4.65;;
34019;SDS011;20895;51.034;3.742;2023-06-24T02:48:28;5.53;;;4.65;;
34019;SDS011;20895;51.034;3.742;2023-06-24T02:50:54;5.88;;;4.75;;
34019;SDS011;20895;51.034;3.742;2023-06-24T02:53:19;7.38;;;5.00;;
34019;SDS011;20895;51.034;3.742;2023-06-24T02:55:45;6.88;;;4.90;;
34019;SDS011;20895;51.034;3.742;2023-06-24T02:58:10;6.63;;;4.72;;
34019;SDS011;20895;51.034;3.742;2023-06-24T03:00:36;6.32;;;4.85;;
34019;SDS011;20895;51.034;3.742;2023-06-24T03:03:02;7.63;;;5.55;;
34019;SDS011;20895;51.034;3.742;2023-06-24T03:05:28;6.97;;;5.20;;
34019;SDS011;20895;51.034;3.742;2023-06-24T03:07:54;6.25;;;5.07;;
34019;SDS011;20895;51.034;3.742;2023-06-24T03:10:19;7.03;;;4.63;;
34019;SDS011;20895;51.034;3.742;2023-06-24T03:12:47;7.35;;;4.95;;
34019;SDS011;20895;51.034;3.742;2023-06-24T03:15:13;7.55;;;5.18;;
34019;SDS011;20895;51.034;3.742;2023-06-24T03:17:38;6.22;;;5.22;;
34019;SDS011;20895;51.034;3.742;2023-06-24T03:20:04;8.38;;;5.60;;
34019;SDS011;20895;51.034;3.742;2023-06-24T03:22:30;9.05;;;5.63;;
34019;SDS011;20895;51.034;3.742;2023-06-24T03:24:55;6.43;;;4.85;;
34019;SDS011;20895;51.034;3.742;2023-06-24T03:27:22;7.50;;;5.57;;
34019;SDS011;20895;51.034;3.742;2023-06-24T03:29:47;6.18;;;4.88;;
34019;SDS011;20895;51.034;3.742;2023-06-24T03:32:12;6.57;;;5.30;;
34019;SDS011;20895;51.034;3.742;2023-06-24T03:34:37;7.22;;;5.45;;
34019;SDS011;20895;51.034;3.742;2023-06-24T03:37:03;10.57;;;6.35;;
34019;SDS011;20895;51.034;3.742;2023-06-24T03:39:29;8.43;;;5.82;;
34019;SDS011;20895;51.034;3.742;2023-06-24T03:41:54;7.53;;;5.65;;
34019;SDS011;20895;51.034;3.742;2023-06-24T03:44:19;9.05;;;5.78;;
34019;SDS011;20895;51.034;3.742;2023-06-24T03:46:45;7.30;;;5.22;;
34019;SDS011;20895;51.034;3.742;2023-06-24T03:49:10;7.38;;;5.53;;
34019;SDS011;20895;51.034;3.742;2023-06-24T03:51:35;6.88;;;5.50;;
34019;SDS011;20895;51.034;3.742;2023-06-24T03:54:00;8.15;;;5.50;;
34019;SDS011;20895;51.034;3.742;2023-06-24T03:56:26;7.22;;;5.78;;
34019;SDS011;20895;51.034;3.742;2023-06-24T03:58:51;9.45;;;6.07;;
34019;SDS011;20895;51.034;3.742;2023-06-24T04:01:17;8.80;;;5.93;;
34019;SDS011;20895;51.034;3.742;2023-06-24T04:03:45;9.15;;;6.18;;
34019;SDS011;20895;51.034;3.742;2023-06-24T04:06:10;6.78;;;5.40;;
34019;SDS011;20895;51.034;3.742;2023-06-24T04:08:36;7.43;;;6.00;;
34019;SDS011;20895;51.034;3.742;2023-06-24T04:11:04;12.57;;;7.72;;
34019;SDS011;20895;51.034;3.742;2023-06-24T04:13:30;8.60;;;6.18;;
34019;SDS011;20895;51.034;3.742;2023-06-24T04:15:55;10.90;;;6.20;;
34019;SDS011;20895;51.034;3.742;2023-06-24T04:18:20;7.38;;;6.07;;
34019;SDS011;20895;51.034;3.742;2023-06-24T04:20:45;7.30;;;5.93;;
34019;SDS011;20895;51.034;3.742;2023-06-24T04:23:11;7.70;;;5.90;;
34019;SDS011;20895;51.034;3.742;2023-06-24T04:25:39;9.50;;;6.05;;
34019;SDS011;20895;51.034;3.742;2023-06-24T04:28:04;7.70;;;6.18;;
34019;SDS011;20895;51.034;3.742;2023-06-24T04:30:30;10.27;;;6.60;;
34019;SDS011;20895;51.034;3.742;2023-06-24T04:32:55;8.93;;;6.13;;
34019;SDS011;20895;51.034;3.742;2023-06-24T04:35:20;6.35;;;5.65;;
34019;SDS011;20895;51.034;3.742;2023-06-24T04:37:45;7.35;;;5.80;;
34019;SDS011;20895;51.034;3.742;2023-06-24T04:40:11;9.85;;;6.78;;
34019;SDS011;20895;51.034;3.742;2023-06-24T04:42:38;11.98;;;6.32;;
34019;SDS011;20895;51.034;3.742;2023-06-24T04:45:03;9.60;;;5.97;;
34019;SDS011;20895;51.034;3.742;2023-06-24T04:47:30;7.90;;;6.10;;
34019;SDS011;20895;51.034;3.742;2023-06-24T04:49:55;7.30;;;5.63;;
34019;SDS011;20895;51.034;3.742;2023-06-24T04:52:21;8.45;;;6.60;;
34019;SDS011;20895;51.034;3.742;2023-06-24T04:54:48;9.90;;;6.15;;
34019;SDS011;20895;51.034;3.742;2023-06-24T04:57:23;9.05;;;6.03;;
34019;SDS011;20895;51.034;3.742;2023-06-24T04:59:48;7.43;;;6.63;;
34019;SDS011;20895;51.034;3.742;2023-06-24T05:02:13;7.93;;;6.55;;
34019;SDS011;20895;51.034;3.742;2023-06-24T05:04:39;8.15;;;6.22;;
34019;SDS011;20895;51.034;3.742;2023-06-24T05:07:04;9.90;;;6.47;;
34019;SDS011;20895;51.034;3.742;2023-06-24T05:09:29;9.23;;;6.45;;
34019;SDS011;20895;51.034;3.742;2023-06-24T05:11:54;9.10;;;6.25;;
34019;SDS011;20895;51.034;3.742;2023-06-24T05:14:20;9.75;;;5.78;;
34019;SDS011;20895;51.034;3.742;2023-06-24T05:16:45;7.53;;;5.95;;
34019;SDS011;20895;51.034;3.742;2023-06-24T05:19:10;8.02;;;6.47;;
34019;SDS011;20895;51.034;3.742;2023-06-24T05:21:36;8.32;;;6.30;;
34019;SDS011;20895;51.034;3.742;2023-06-24T05:24:01;11.00;;;6.15;;
34019;SDS011;20895;51.034;3.742;2023-06-24T05:26:26;9.98;;;6.30;;
34019;SDS011;20895;51.034;3.742;2023-06-24T05:28:51;7.53;;;6.50;;
34019;SDS011;20895;51.034;3.742;2023-06-24T05:31:16;8.60;;;6.35;;
34019;SDS011;20895;51.034;3.742;2023-06-24T05:33:43;12.57;;;7.45;;
34019;SDS011;20895;51.034;3.742;2023-06-24T05:36:08;10.93;;;6.85;;
34019;SDS011;20895;51.034;3.742;2023-06-24T05:38:33;10.63;;;6.97;;
34019;SDS011;20895;51.034;3.742;2023-06-24T05:40:59;11.32;;;7.45;;
34019;SDS011;20895;51.034;3.742;2023-06-24T05:43:25;9.00;;;7.97;;
34019;SDS011;20895;51.034;3.742;2023-06-24T05:45:50;8.95;;;6.85;;
34019;SDS011;20895;51.034;3.742;2023-06-24T05:48:15;9.35;;;6.45;;
34019;SDS011;20895;51.034;3.742;2023-06-24T05:50:41;8.68;;;6.82;;
34019;SDS011;20895;51.034;3.742;2023-06-24T05:53:06;7.65;;;6.35;;
34019;SDS011;20895;51.034;3.742;2023-06-24T05:55:31;8.73;;;6.95;;
34019;SDS011;20895;51.034;3.742;2023-06-24T05:57:57;7.85;;;6.50;;
34019;SDS011;20895;51.034;3.742;2023-06-24T06:00:24;12.35;;;7.13;;
34019;SDS011;20895;51.034;3.742;2023-06-24T06:02:49;8.73;;;6.47;;
34019;SDS011;20895;51.034;3.742;2023-06-24T06:05:15;10.43;;;7.47;;
34019;SDS011;20895;51.034;3.742;2023-06-24T06:07:40;9.65;;;7.45;;
34019;SDS011;20895;51.034;3.742;2023-06-24T06:10:06;8.85;;;6.88;;
34019;SDS011;20895;51.034;3.742;2023-06-24T06:12:31;8.55;;;7.38;;
34019;SDS011;20895;51.034;3.742;2023-06-24T06:14:56;9.98;;;8.18;;
34019;SDS011;20895;51.034;3.742;2023-06-24T06:17:22;7.63;;;6.82;;
34019;SDS011;20895;51.034;3.742;2023-06-24T06:19:47;9.38;;;7.47;;
34019;SDS011;20895;51.034;3.742;2023-06-24T06:22:12;9.23;;;7.85;;
34019;SDS011;20895;51.034;3.742;2023-06-24T06:24:38;9.18;;;8.18;;
34019;SDS011;20895;51.034;3.742;2023-06-24T06:27:04;9.53;;;8.53;;
34019;SDS011;20895;51.034;3.742;2023-06-24T06:29:29;9.15;;;7.55;;
34019;SDS011;20895;51.034;3.742;2023-06-24T06:31:55;9.85;;;7.95;;
34019;SDS011;20895;51.034;3.742;2023-06-24T06:34:22;9.65;;;8.65;;
34019;SDS011;20895;51.034;3.742;2023-06-24T06:36:47;11.77;;;8.13;;
34019;SDS011;20895;51.034;3.742;2023-06-24T06:39:12;8.63;;;7.78;;
34019;SDS011;20895;51.034;3.742;2023-06-24T06:41:37;9.10;;;7.97;;
34019;SDS011;20895;51.034;3.742;2023-06-24T06:44:02;8.37;;;7.47;;
34019;SDS011;20895;51.034;3.742;2023-06-24T06:46:28;10.32;;;8.63;;
34019;SDS011;20895;51.034;3.742;2023-06-24T06:48:53;10.52;;;8.40;;
34019;SDS011;20895;51.034;3.742;2023-06-24T06:51:18;10.57;;;7.53;;
34019;SDS011;20895;51.034;3.742;2023-06-24T06:53:44;9.00;;;7.20;;
34019;SDS011;20895;51.034;3.742;2023-06-24T06:56:16;8.65;;;7.78;;
34019;SDS011;20895;51.034;3.742;2023-06-24T06:58:41;10.18;;;7.47;;
34019;SDS011;20895;51.034;3.742;2023-06-24T07:01:06;8.98;;;7.93;;
34019;SDS011;20895;51.034;3.742;2023-06-24T07:03:31;9.88;;;8.00;;
34019;SDS011;20895;51.034;3.742;2023-06-24T07:05:56;11.93;;;8.73;;
34019;SDS011;20895;51.034;3.742;2023-06-24T07:08:22;11.15;;;9.30;;
34019;SDS011;20895;51.034;3.742;2023-06-24T07:10:47;9.73;;;8.77;;
34019;SDS011;20895;51.034;3.742;2023-06-24T07:13:12;11.07;;;8.43;;
34019;SDS011;20895;51.034;3.742;2023-06-24T07:15:38;9.93;;;8.25;;
34019;SDS011;20895;51.034;3.742;2023-06-24T07:18:03;13.20;;;9.00;;
34019;SDS011;20895;51.034;3.742;2023-06-24T07:20:28;10.20;;;8.48;;
34019;SDS011;20895;51.034;3.742;2023-06-24T07:22:53;8.75;;;7.63;;
34019;SDS011;20895;51.034;3.742;2023-06-24T07:25:19;10.90;;;8.85;;
34019;SDS011;20895;51.034;3.742;2023-06-24T07:27:44;9.27;;;8.23;;
34019;SDS011;20895;51.034;3.742;2023-06-24T07:30:09;12.35;;;8.82;;
34019;SDS011;20895;51.034;3.742;2023-06-24T07:32:34;9.15;;;8.20;;
34019;SDS011;20895;51.034;3.742;2023-06-24T07:35:00;12.20;;;9.55;;
34019;SDS011;20895;51.034;3.742;2023-06-24T07:37:25;10.38;;;8.05;;
34019;SDS011;20895;51.034;3.742;2023-06-24T07:39:50;10.93;;;8.45;;
34019;SDS011;20895;51.034;3.742;2023-06-24T07:42:16;10.85;;;9.43;;
34019;SDS011;20895;51.034;3.742;2023-06-24T07:44:44;10.90;;;8.68;;
34019;SDS011;20895;51.034;3.742;2023-06-24T07:47:09;11.18;;;9.13;;
34019;SDS011;20895;51.034;3.742;2023-06-24T07:49:35;9.80;;;8.27;;
34019;SDS011;20895;51.034;3.742;2023-06-24T07:52:00;10.77;;;8.55;;
34019;SDS011;20895;51.034;3.742;2023-06-24T07:54:25;10.18;;;8.93;;
34019;SDS011;20895;51.034;3.742;2023-06-24T07:56:50;9.47;;;8.57;;
34019;SDS011;20895;51.034;3.742;2023-06-24T07:59:16;12.90;;;8.50;;
34019;SDS011;20895;51.034;3.742;2023-06-24T08:01:41;9.30;;;7.88;;
34019;SDS011;20895;51.034;3.742;2023-06-24T08:04:06;10.27;;;8.40;;
34019;SDS011;20895;51.034;3.742;2023-06-24T08:06:32;10.35;;;9.18;;
34019;SDS011;20895;51.034;3.742;2023-06-24T08:08:57;10.68;;;9.55;;
34019;SDS011;20895;51.034;3.742;2023-06-24T08:11:22;9.90;;;8.60;;
34019;SDS011;20895;51.034;3.742;2023-06-24T08:13:47;10.45;;;8.45;;
34019;SDS011;20895;51.034;3.742;2023-06-24T08:16:15;9.60;;;8.35;;
34019;SDS011;20895;51.034;3.742;2023-06-24T08:18:40;12.02;;;9.07;;
34019;SDS011;20895;51.034;3.742;2023-06-24T08:21:06;10.23;;;9.13;;
34019;SDS011;20895;51.034;3.742;2023-06-24T08:23:31;11.07;;;8.83;;
34019;SDS011;20895;51.034;3.742;2023-06-24T08:25:56;11.60;;;9.35;;
34019;SDS011;20895;51.034;3.742;2023-06-24T08:28:21;13.73;;;9.93;;
34019;SDS011;20895;51.034;3.742;2023-06-24T08:30:47;11.15;;;8.85;;
34019;SDS011;20895;51.034;3.742;2023-06-24T08:33:12;9.38;;;7.60;;
34019;SDS011;20895;51.034;3.742;2023-06-24T08:35:37;11.23;;;9.20;;
34019;SDS011;20895;51.034;3.742;2023-06-24T08:38:02;8.43;;;7.17;;
34019;SDS011;20895;51.034;3.742;2023-06-24T08:40:27;12.63;;;7.80;;
34019;SDS011;20895;51.034;3.742;2023-06-24T08:42:53;10.00;;;8.40;;
34019;SDS011;20895;51.034;3.742;2023-06-24T08:45:20;10.90;;;7.93;;
34019;SDS011;20895;51.034;3.742;2023-06-24T08:47:45;10.80;;;7.63;;
34019;SDS011;20895;51.034;3.742;2023-06-24T08:50:11;9.15;;;8.15;;
34019;SDS011;20895;51.034;3.742;2023-06-24T08:52:38;9.15;;;7.82;;
34019;SDS011;20895;51.034;3.742;2023-06-24T08:55:04;10.07;;;7.43;;
34019;SDS011;20895;51.034;3.742;2023-06-24T08:57:31;10.55;;;6.97;;
34019;SDS011;20895;51.034;3.742;2023-06-24T08:59:56;7.90;;;6.95;;
34019;SDS011;20895;51.034;3.742;2023-06-24T09:02:21;13.18;;;7.72;;
34019;SDS011;20895;51.034;3.742;2023-06-24T09:04:47;9.43;;;6.63;;
34019;SDS011;20895;51.034;3.742;2023-06-24T09:07:12;7.20;;;6.32;;
34019;SDS011;20895;51.034;3.742;2023-06-24T09:09:42;10.73;;;6.88;;
34019;SDS011;20895;51.034;3.742;2023-06-24T09:12:12;10.90;;;7.60;;
34019;SDS011;20895;51.034;3.742;2023-06-24T09:14:37;7.75;;;6.95;;
34019;SDS011;20895;51.034;3.742;2023-06-24T09:17:03;8.73;;;7.50;;
34019;SDS011;20895;51.034;3.742;2023-06-24T09:19:31;8.60;;;7.28;;
34019;SDS011;20895;51.034;3.742;2023-06-24T09:22:05;10.90;;;7.30;;
34019;SDS011;20895;51.034;3.742;2023-06-24T09:24:30;9.13;;;7.13;;
34019;SDS011;20895;51.034;3.742;2023-06-24T09:26:56;8.18;;;6.85;;
34019;SDS011;20895;51.034;3.742;2023-06-24T09:29:25;8.90;;;6.97;;
34019;SDS011;20895;51.034;3.742;2023-06-24T09:31:50;8.75;;;6.40;;
34019;SDS011;20895;51.034;3.742;2023-06-24T09:34:20;7.32;;;5.93;;
34019;SDS011;20895;51.034;3.742;2023-06-24T09:36:50;7.95;;;7.07;;
34019;SDS011;20895;51.034;3.742;2023-06-24T09:39:16;8.43;;;7.07;;
34019;SDS011;20895;51.034;3.742;2023-06-24T09:41:41;9.02;;;6.85;;
34019;SDS011;20895;51.034;3.742;2023-06-24T09:44:08;6.88;;;5.50;;
34019;SDS011;20895;51.034;3.742;2023-06-24T09:46:33;6.60;;;5.90;;
34019;SDS011;20895;51.034;3.742;2023-06-24T09:49:01;8.25;;;5.80;;
34019;SDS011;20895;51.034;3.742;2023-06-24T09:51:26;9.80;;;5.63;;
34019;SDS011;20895;51.034;3.742;2023-06-24T09:53:52;8.35;;;5.63;;
34019;SDS011;20895;51.034;3.742;2023-06-24T09:56:19;7.20;;;5.88;;
34019;SDS011;20895;51.034;3.742;2023-06-24T09:58:45;7.05;;;5.32;;
34019;SDS011;20895;51.034;3.742;2023-06-24T10:01:11;7.57;;;5.10;;
34019;SDS011;20895;51.034;3.742;2023-06-24T10:03:37;6.65;;;5.22;;
34019;SDS011;20895;51.034;3.742;2023-06-24T10:06:04;7.72;;;5.95;;
34019;SDS011;20895;51.034;3.742;2023-06-24T10:08:30;8.63;;;5.65;;
34019;SDS011;20895;51.034;3.742;2023-06-24T10:10:55;9.63;;;5.60;;
34019;SDS011;20895;51.034;3.742;2023-06-24T10:13:21;5.78;;;4.50;;
34019;SDS011;20895;51.034;3.742;2023-06-24T10:15:46;5.47;;;4.32;;
34019;SDS011;20895;51.034;3.742;2023-06-24T10:20:55;7.93;;;4.70;;
34019;SDS011;20895;51.034;3.742;2023-06-24T10:23:21;5.38;;;4.50;;
34019;SDS011;20895;51.034;3.742;2023-06-24T10:25:47;5.80;;;4.63;;
34019;SDS011;20895;51.034;3.742;2023-06-24T10:28:12;5.60;;;4.30;;
34019;SDS011;20895;51.034;3.742;2023-06-24T10:30:37;4.47;;;3.33;;
34019;SDS011;20895;51.034;3.742;2023-06-24T10:33:02;4.03;;;2.95;;
34019;SDS011;20895;51.034;3.742;2023-06-24T10:35:28;5.75;;;4.03;;
34019;SDS011;20895;51.034;3.742;2023-06-24T10:37:57;4.57;;;3.17;;
34019;SDS011;20895;51.034;3.742;2023-06-24T10:40:36;5.50;;;4.18;;
34019;SDS011;20895;51.034;3.742;2023-06-24T10:43:04;2.50;;;2.10;;
34019;SDS011;20895;51.034;3.742;2023-06-24T10:45:50;4.40;;;2.17;;
34019;SDS011;20895;51.034;3.742;2023-06-24T10:48:16;4.93;;;2.83;;
34019;SDS011;20895;51.034;3.742;2023-06-24T10:50:44;5.75;;;3.50;;
34019;SDS011;20895;51.034;3.742;2023-06-24T10:53:09;4.93;;;3.80;;
34019;SDS011;20895;51.034;3.742;2023-06-24T10:55:38;5.00;;;3.13;;
34019;SDS011;20895;51.034;3.742;2023-06-24T10:58:10;5.18;;;3.13;;
34019;SDS011;20895;51.034;3.742;2023-06-24T11:00:37;4.47;;;2.42;;
34019;SDS011;20895;51.034;3.742;2023-06-24T11:03:13;4.55;;;3.40;;
34019;SDS011;20895;51.034;3.742;2023-06-24T11:05:39;4.72;;;2.97;;
34019;SDS011;20895;51.034;3.742;2023-06-24T11:08:05;4.65;;;3.35;;
34019;SDS011;20895;51.034;3.742;2023-06-24T11:10:31;4.95;;;3.08;;
34019;SDS011;20895;51.034;3.742;2023-06-24T11:12:56;5.00;;;3.33;;
34019;SDS011;20895;51.034;3.742;2023-06-24T11:15:24;3.72;;;3.00;;
34019;SDS011;20895;51.034;3.742;2023-06-24T11:17:50;4.65;;;2.65;;
34019;SDS011;20895;51.034;3.742;2023-06-24T11:20:15;4.32;;;3.00;;
34019;SDS011;20895;51.034;3.742;2023-06-24T11:22:41;5.40;;;3.97;;
34019;SDS011;20895;51.034;3.742;2023-06-24T11:25:14;7.32;;;3.53;;
34019;SDS011;20895;51.034;3.742;2023-06-24T11:27:39;5.75;;;3.40;;
34019;SDS011;20895;51.034;3.742;2023-06-24T11:30:04;6.30;;;3.20;;
34019;SDS011;20895;51.034;3.742;2023-06-24T11:32:39;5.13;;;3.40;;
34019;SDS011;20895;51.034;3.742;2023-06-24T11:35:08;7.68;;;3.72;;
34019;SDS011;20895;51.034;3.742;2023-06-24T11:37:34;5.47;;;3.75;;
34019;SDS011;20895;51.034;3.742;2023-06-24T11:40:00;7.85;;;4.90;;
34019;SDS011;20895;51.034;3.742;2023-06-24T11:42:27;4.43;;;3.75;;
34019;SDS011;20895;51.034;3.742;2023-06-24T11:44:52;5.53;;;3.47;;
34019;SDS011;20895;51.034;3.742;2023-06-24T11:47:18;6.60;;;3.30;;
34019;SDS011;20895;51.034;3.742;2023-06-24T11:49:48;9.60;;;3.72;;
34019;SDS011;20895;51.034;3.742;2023-06-24T11:52:14;4.45;;;2.63;;
34019;SDS011;20895;51.034;3.742;2023-06-24T11:54:42;4.00;;;2.93;;
34019;SDS011;20895;51.034;3.742;2023-06-24T11:57:08;3.33;;;2.60;;
34019;SDS011;20895;51.034;3.742;2023-06-24T11:59:33;4.88;;;2.33;;
34019;SDS011;20895;51.034;3.742;2023-06-24T12:01:58;3.67;;;2.63;;
34019;SDS011;20895;51.034;3.742;2023-06-24T12:04:28;4.53;;;2.75;;
34019;SDS011;20895;51.034;3.742;2023-06-24T12:06:53;2.78;;;2.38;;
34019;SDS011;20895;51.034;3.742;2023-06-24T12:09:19;4.50;;;3.03;;
34019;SDS011;20895;51.034;3.742;2023-06-24T12:11:44;8.73;;;3.80;;
34019;SDS011;20895;51.034;3.742;2023-06-24T12:14:09;3.97;;;2.38;;
34019;SDS011;20895;51.034;3.742;2023-06-24T12:16:35;3.50;;;2.65;;
34019;SDS011;20895;51.034;3.742;2023-06-24T12:19:00;3.37;;;2.07;;
34019;SDS011;20895;51.034;3.742;2023-06-24T12:21:25;2.92;;;2.15;;
34019;SDS011;20895;51.034;3.742;2023-06-24T12:23:51;6.03;;;4.00;;
34019;SDS011;20895;51.034;3.742;2023-06-24T12:26:16;3.10;;;1.70;;
34019;SDS011;20895;51.034;3.742;2023-06-24T12:28:41;7.07;;;2.05;;
34019;SDS011;20895;51.034;3.742;2023-06-24T12:31:06;2.83;;;1.60;;
34019;SDS011;20895;51.034;3.742;2023-06-24T12:33:32;4.28;;;2.20;;
34019;SDS011;20895;51.034;3.742;2023-06-24T12:35:58;2.38;;;1.40;;
34019;SDS011;20895;51.034;3.742;2023-06-24T12:38:23;2.83;;;1.73;;
34019;SDS011;20895;51.034;3.742;2023-06-24T12:40:48;3.40;;;2.13;;
34019;SDS011;20895;51.034;3.742;2023-06-24T12:43:14;3.75;;;2.20;;
34019;SDS011;20895;51.034;3.742;2023-06-24T12:45:42;3.40;;;2.17;;
34019;SDS011;20895;51.034;3.742;2023-06-24T12:48:11;5.05;;;1.92;;
34019;SDS011;20895;51.034;3.742;2023-06-24T12:50:36;5.18;;;2.47;;
34019;SDS011;20895;51.034;3.742;2023-06-24T12:53:02;3.72;;;2.75;;
34019;SDS011;20895;51.034;3.742;2023-06-24T12:55:28;4.63;;;2.38;;
34019;SDS011;20895;51.034;3.742;2023-06-24T12:57:53;4.07;;;2.97;;
34019;SDS011;20895;51.034;3.742;2023-06-24T13:00:19;5.00;;;3.17;;
34019;SDS011;20895;51.034;3.742;2023-06-24T13:02:44;3.38;;;2.35;;
34019;SDS011;20895;51.034;3.742;2023-06-24T13:05:10;4.13;;;2.78;;
34019;SDS011;20895;51.034;3.742;2023-06-24T13:07:35;5.07;;;2.10;;
34019;SDS011;20895;51.034;3.742;2023-06-24T13:10:00;2.55;;;2.10;;
34019;SDS011;20895;51.034;3.742;2023-06-24T13:12:26;1.90;;;1.77;;
34019;SDS011;20895;51.034;3.742;2023-06-24T13:14:52;2.55;;;1.75;;
34019;SDS011;20895;51.034;3.742;2023-06-24T13:17:17;4.20;;;2.20;;
34019;SDS011;20895;51.034;3.742;2023-06-24T13:19:42;3.40;;;2.08;;
34019;SDS011;20895;51.034;3.742;2023-06-24T13:22:07;3.80;;;2.20;;
34019;SDS011;20895;51.034;3.742;2023-06-24T13:24:33;3.10;;;2.27;;
34019;SDS011;20895;51.034;3.742;2023-06-24T13:26:58;4.23;;;2.20;;
34019;SDS011;20895;51.034;3.742;2023-06-24T13:29:23;2.70;;;1.70;;
34019;SDS011;20895;51.034;3.742;2023-06-24T13:31:49;4.28;;;1.90;;
34019;SDS011;20895;51.034;3.742;2023-06-24T13:34:14;2.30;;;1.70;;
34019;SDS011;20895;51.034;3.742;2023-06-24T13:36:39;2.72;;;1.70;;
34019;SDS011;20895;51.034;3.742;2023-06-24T13:39:05;3.75;;;2.00;;
34019;SDS011;20895;51.034;3.742;2023-06-24T13:41:31;2.58;;;1.65;;
34019;SDS011;20895;51.034;3.742;2023-06-24T13:44:01;4.35;;;1.90;;
34019;SDS011;20895;51.034;3.742;2023-06-24T13:46:27;1.85;;;1.60;;
34019;SDS011;20895;51.034;3.742;2023-06-24T13:48:53;5.43;;;2.65;;
34019;SDS011;20895;51.034;3.742;2023-06-24T13:51:18;5.35;;;1.83;;
34019;SDS011;20895;51.034;3.742;2023-06-24T13:53:44;3.28;;;1.70;;
34019;SDS011;20895;51.034;3.742;2023-06-24T13:56:10;3.17;;;1.67;;
34019;SDS011;20895;51.034;3.742;2023-06-24T13:58:35;3.23;;;2.20;;
34019;SDS011;20895;51.034;3.742;2023-06-24T14:01:00;2.43;;;1.50;;
34019;SDS011;20895;51.034;3.742;2023-06-24T14:03:25;5.33;;;1.73;;
34019;SDS011;20895;51.034;3.742;2023-06-24T14:05:51;4.50;;;1.67;;
34019;SDS011;20895;51.034;3.742;2023-06-24T14:08:16;2.60;;;1.48;;
34019;SDS011;20895;51.034;3.742;2023-06-24T14:10:41;4.00;;;1.35;;
34019;SDS011;20895;51.034;3.742;2023-06-24T14:13:06;2.40;;;1.23;;
34019;SDS011;20895;51.034;3.742;2023-06-24T14:15:32;1.53;;;1.37;;
34019;SDS011;20895;51.034;3.742;2023-06-24T14:17:57;4.03;;;1.67;;
34019;SDS011;20895;51.034;3.742;2023-06-24T14:20:22;2.37;;;1.57;;
34019;SDS011;20895;51.034;3.742;2023-06-24T14:22:49;1.50;;;1.27;;
34019;SDS011;20895;51.034;3.742;2023-06-24T14:25:15;2.00;;;1.60;;
34019;SDS011;20895;51.034;3.742;2023-06-24T14:27:40;2.72;;;1.98;;
34019;SDS011;20895;51.034;3.742;2023-06-24T14:30:05;2.75;;;1.60;;
34019;SDS011;20895;51.034;3.742;2023-06-24T14:32:31;3.03;;;1.58;;
34019;SDS011;20895;51.034;3.742;2023-06-24T14:34:56;1.63;;;1.43;;
34019;SDS011;20895;51.034;3.742;2023-06-24T14:37:21;2.92;;;1.75;;
34019;SDS011;20895;51.034;3.742;2023-06-24T14:39:47;2.77;;;1.80;;
34019;SDS011;20895;51.034;3.742;2023-06-24T14:42:12;2.90;;;1.38;;
34019;SDS011;20895;51.034;3.742;2023-06-24T14:44:37;2.20;;;1.60;;
34019;SDS011;20895;51.034;3.742;2023-06-24T14:47:02;3.40;;;1.73;;
34019;SDS011;20895;51.034;3.742;2023-06-24T14:49:28;2.47;;;1.42;;
34019;SDS011;20895;51.034;3.742;2023-06-24T14:51:53;2.50;;;1.60;;
34019;SDS011;20895;51.034;3.742;2023-06-24T14:54:18;3.27;;;1.43;;
34019;SDS011;20895;51.034;3.742;2023-06-24T14:56:44;3.28;;;2.10;;
34019;SDS011;20895;51.034;3.742;2023-06-24T14:59:09;2.05;;;1.55;;